createdAt,value
2022-09-10T00:01:37.110Z,2.33
2022-09-10T00:04:11.623Z,2.72
2022-09-10T00:06:39.633Z,3.22
2022-09-10T00:09:07.569Z,2.47
2022-09-10T00:11:38.634Z,1.92
2022-09-10T00:14:08.255Z,1.60
2022-09-10T00:16:35.627Z,2.22
2022-09-10T00:19:04.522Z,2.28
2022-09-10T00:21:32.045Z,1.48
2022-09-10T00:24:00.928Z,2.25
2022-09-10T00:26:38.337Z,3.42
2022-09-10T00:29:12.528Z,1.63
2022-09-10T00:31:40.160Z,3.53
2022-09-10T00:34:09.148Z,2.47
2022-09-10T00:36:42.251Z,1.85
2022-09-10T00:39:14.985Z,2.20
2022-09-10T00:41:46.837Z,3.30
2022-09-10T00:44:42.074Z,3.13
2022-09-10T00:47:25.670Z,2.13
2022-09-10T00:50:18.019Z,3.50
2022-09-10T00:52:47.587Z,2.10
2022-09-10T00:55:15.511Z,3.05
2022-09-10T00:57:46.260Z,1.60
2022-09-10T01:00:15.205Z,1.83
2022-09-10T01:02:43.460Z,2.88
2022-09-10T01:05:13.524Z,2.28
2022-09-10T01:07:41.314Z,0.67
2022-09-10T01:10:32.577Z,0.93
2022-09-10T01:13:33.241Z,1.60
2022-09-10T01:16:22.751Z,2.15
2022-09-10T01:19:32.885Z,2.10
2022-09-10T01:22:28.747Z,2.03
2022-09-10T01:25:56.246Z,2.20
2022-09-10T01:29:01.245Z,2.50
2022-09-10T01:31:51.899Z,1.05
2022-09-10T01:34:41.851Z,2.53
2022-09-10T01:37:17.362Z,2.10
2022-09-10T01:39:47.432Z,2.00
2022-09-10T01:42:15.352Z,1.58
2022-09-10T01:44:45.564Z,2.50
2022-09-10T01:47:38.886Z,2.95
2022-09-10T01:50:30.147Z,1.50
2022-09-10T01:53:12.210Z,1.55
2022-09-10T01:56:03.076Z,2.22
2022-09-10T01:58:37.592Z,2.25
2022-09-10T02:01:16.666Z,1.90
2022-09-10T02:03:48.279Z,1.20
2022-09-10T02:06:20.392Z,1.48
2022-09-10T02:08:52.861Z,1.48
2022-09-10T02:11:21.498Z,2.08
2022-09-10T02:13:49.353Z,1.85
2022-09-10T02:16:33.444Z,2.30
2022-09-10T02:19:03.090Z,2.20
2022-09-10T02:21:33.545Z,5.68
2022-09-10T02:24:11.441Z,1.40
2022-09-10T02:26:43.717Z,3.65
2022-09-10T02:29:15.396Z,2.55
2022-09-10T02:31:44.099Z,2.65
2022-09-10T02:34:11.503Z,2.10
2022-09-10T02:36:38.846Z,2.80
2022-09-10T02:39:08.037Z,3.38
2022-09-10T02:41:35.489Z,2.05
2022-09-10T02:44:03.952Z,2.10
2022-09-10T02:46:31.870Z,2.58
2022-09-10T02:48:59.218Z,1.90
2022-09-10T02:51:26.470Z,5.00
2022-09-10T02:53:55.759Z,2.05
2022-09-10T02:56:23.875Z,1.70
2022-09-10T02:58:51.694Z,2.42
2022-09-10T03:01:22.202Z,2.83
2022-09-10T03:03:55.166Z,2.95
2022-09-10T03:06:25.068Z,3.22
2022-09-10T03:08:55.393Z,2.08
2022-09-10T03:11:24.061Z,2.33
2022-09-10T03:13:51.535Z,3.88
2022-09-10T03:16:19.111Z,3.17
2022-09-10T03:18:47.145Z,2.10
2022-09-10T03:21:21.053Z,1.95
2022-09-10T03:23:52.217Z,2.08
2022-09-10T03:26:21.633Z,2.25
2022-09-10T03:28:50.221Z,2.67
2022-09-10T03:31:18.324Z,1.87
2022-09-10T03:33:46.363Z,1.90
2022-09-10T03:36:13.710Z,1.90
2022-09-10T03:38:41.763Z,2.80
2022-09-10T03:41:09.531Z,1.77
2022-09-10T03:43:37.483Z,2.50
2022-09-10T03:46:05.556Z,3.15
2022-09-10T03:48:33.171Z,2.83
2022-09-10T03:51:00.491Z,2.60
2022-09-10T03:53:27.981Z,3.55
2022-09-10T03:55:55.806Z,3.60
2022-09-10T03:58:23.438Z,3.00
2022-09-10T04:00:52.915Z,3.28
2022-09-10T04:03:20.560Z,2.90
2022-09-10T04:05:47.894Z,3.35
2022-09-10T04:08:15.644Z,7.53
2022-09-10T04:10:47.425Z,2.60
2022-09-10T04:13:15.287Z,4.20
2022-09-10T04:15:46.257Z,4.65
2022-09-10T04:18:14.622Z,4.07
2022-09-10T04:20:43.610Z,3.85
2022-09-10T04:23:11.168Z,5.38
2022-09-10T04:25:38.630Z,3.47
2022-09-10T04:28:05.889Z,3.80
2022-09-10T04:30:33.314Z,3.30
2022-09-10T04:33:00.827Z,3.35
2022-09-10T04:35:27.975Z,9.30
2022-09-10T04:37:55.199Z,4.28
2022-09-10T04:40:22.468Z,5.82
2022-09-10T04:42:49.759Z,3.72
2022-09-10T04:45:16.982Z,4.57
2022-09-10T04:47:48.854Z,5.55
2022-09-10T04:50:16.229Z,4.07
2022-09-10T04:52:43.587Z,5.47
2022-09-10T04:55:11.997Z,4.15
2022-09-10T04:57:39.366Z,5.32
2022-09-10T05:00:08.866Z,3.92
2022-09-10T05:02:37.659Z,4.78
2022-09-10T05:05:05.541Z,5.15
2022-09-10T05:07:32.829Z,5.00
2022-09-10T05:10:00.060Z,4.75
2022-09-10T05:12:27.378Z,5.93
2022-09-10T05:14:55.272Z,7.28
2022-09-10T05:17:22.682Z,6.63
2022-09-10T05:19:49.951Z,7.00
2022-09-10T05:22:17.242Z,8.50
2022-09-10T05:24:44.499Z,6.75
2022-09-10T05:27:11.777Z,6.80
2022-09-10T05:29:41.843Z,8.25
2022-09-10T05:32:13.405Z,6.65
2022-09-10T05:34:40.664Z,6.47
2022-09-10T05:37:08.938Z,7.07
2022-09-10T05:39:36.269Z,8.53
2022-09-10T05:42:03.956Z,7.25
2022-09-10T05:44:31.170Z,7.10
2022-09-10T05:46:58.414Z,9.30
2022-09-10T05:49:26.595Z,9.00
2022-09-10T05:51:53.807Z,6.75
2022-09-10T05:54:21.020Z,7.40
2022-09-10T05:56:48.803Z,7.43
2022-09-10T05:59:17.552Z,7.53
2022-09-10T06:01:44.981Z,7.15
2022-09-10T06:04:12.217Z,7.60
2022-09-10T06:06:40.009Z,9.03
2022-09-10T06:09:07.309Z,6.75
2022-09-10T06:11:34.643Z,6.73
2022-09-10T06:14:01.873Z,7.10
2022-09-10T06:16:29.282Z,8.65
2022-09-10T06:18:59.744Z,8.45
2022-09-10T06:21:29.380Z,5.20
2022-09-10T06:23:57.871Z,8.05
2022-09-10T06:26:26.135Z,6.20
2022-09-10T06:28:56.889Z,6.00
2022-09-10T06:31:24.299Z,5.10
2022-09-10T06:33:51.586Z,6.03
2022-09-10T06:36:18.790Z,5.40
2022-09-10T06:38:46.060Z,3.72
2022-09-10T06:41:16.148Z,5.50
2022-09-10T06:43:43.833Z,6.13
2022-09-10T06:46:54.942Z,5.15
2022-09-10T06:49:07.517Z,4.38
2022-09-10T06:51:34.979Z,5.40
2022-09-10T06:54:02.912Z,5.53
2022-09-10T06:56:30.324Z,6.28
2022-09-10T06:59:00.375Z,8.35
2022-09-10T07:01:30.123Z,7.28
2022-09-10T07:04:00.086Z,4.93
2022-09-10T07:06:29.040Z,5.22
2022-09-10T07:08:58.212Z,5.40
2022-09-10T07:11:28.856Z,7.50
2022-09-10T07:13:56.351Z,6.80
2022-09-10T07:16:26.793Z,6.30
2022-09-10T07:18:58.733Z,5.47
2022-09-10T07:21:28.033Z,4.60
2022-09-10T07:24:03.403Z,4.32
2022-09-10T07:26:31.474Z,4.50
2022-09-10T07:28:59.847Z,4.93
2022-09-10T07:31:31.144Z,5.40
2022-09-10T07:34:01.572Z,4.15
2022-09-10T07:36:29.726Z,4.47
2022-09-10T07:38:59.932Z,4.00
2022-09-10T07:41:30.044Z,4.90
2022-09-10T07:43:58.681Z,7.55
2022-09-10T07:46:28.031Z,7.68
2022-09-10T07:48:58.664Z,6.93
2022-09-10T07:51:29.867Z,5.93
2022-09-10T07:53:59.281Z,8.45
2022-09-10T07:56:27.227Z,6.93
2022-09-10T07:58:57.042Z,5.22
2022-09-10T08:01:24.313Z,5.78
2022-09-10T08:03:51.643Z,5.83
2022-09-10T08:06:19.487Z,5.50
2022-09-10T08:08:46.837Z,3.97
2022-09-10T08:11:17.969Z,4.90
2022-09-10T08:13:50.563Z,4.93
2022-09-10T08:16:23.101Z,7.00
2022-09-10T08:18:51.575Z,4.32
2022-09-10T08:21:20.042Z,5.95
2022-09-10T08:23:54.067Z,4.95
2022-09-10T08:26:24.397Z,4.97
2022-09-10T08:28:57.900Z,4.65
2022-09-10T08:31:26.685Z,3.92
2022-09-10T08:33:56.811Z,4.50
2022-09-10T08:36:25.725Z,4.10
2022-09-10T08:38:59.847Z,4.83
2022-09-10T08:42:15.279Z,4.43
2022-09-10T08:44:54.214Z,3.58
2022-09-10T08:47:48.729Z,5.65
2022-09-10T08:50:36.278Z,3.67
2022-09-10T08:53:51.822Z,2.33
2022-09-10T08:56:23.013Z,3.13
2022-09-10T08:59:17.364Z,4.68
2022-09-10T09:01:55.390Z,4.60
2022-09-10T09:04:50.505Z,4.30
2022-09-10T09:07:20.963Z,3.35
2022-09-10T09:09:52.244Z,2.92
2022-09-10T09:12:40.554Z,5.13
2022-09-10T09:15:23.234Z,2.85
2022-09-10T09:18:28.178Z,2.87
2022-09-10T09:21:00.345Z,2.43
2022-09-10T09:24:13.866Z,2.28
2022-09-10T09:26:46.310Z,3.13
2022-09-10T09:29:27.201Z,1.90
2022-09-10T09:32:02.363Z,1.50
2022-09-10T09:34:51.598Z,3.28
2022-09-10T09:37:24.725Z,1.52
2022-09-10T09:40:15.092Z,2.40
2022-09-10T09:42:58.477Z,6.63
2022-09-10T09:45:44.410Z,2.05
2022-09-10T09:48:18.305Z,3.35
2022-09-10T09:50:50.095Z,3.63
2022-09-10T09:53:25.573Z,3.70
2022-09-10T09:55:57.752Z,3.60
2022-09-10T09:58:26.287Z,5.38
2022-09-10T10:01:09.791Z,4.37
2022-09-10T10:04:01.865Z,2.95
2022-09-10T10:06:47.744Z,2.00
2022-09-10T10:09:31.349Z,3.45
2022-09-10T10:12:04.573Z,1.90
2022-09-10T10:14:42.305Z,2.22
2022-09-10T10:17:30.513Z,1.98
2022-09-10T10:20:16.331Z,3.13
2022-09-10T10:22:46.517Z,2.22
2022-09-10T10:25:40.458Z,3.50
2022-09-10T10:28:22.928Z,2.38
2022-09-10T10:31:00.041Z,1.88
2022-09-10T10:33:33.244Z,2.50
2022-09-10T10:36:22.618Z,2.05
2022-09-10T10:39:45.346Z,3.38
2022-09-10T10:42:36.740Z,1.77
2022-09-10T10:45:31.570Z,2.40
2022-09-10T10:48:47.340Z,1.92
2022-09-10T10:51:25.947Z,1.33
2022-09-10T10:54:28.534Z,1.60
2022-09-10T10:57:10.632Z,0.90
2022-09-10T11:00:05.018Z,2.67
2022-09-10T11:03:01.654Z,1.25
2022-09-10T11:05:41.412Z,1.23
2022-09-10T11:08:19.523Z,1.27
2022-09-10T11:11:20.868Z,1.90
2022-09-10T11:14:27.456Z,1.10
2022-09-10T11:17:04.660Z,2.08
2022-09-10T11:20:10.865Z,1.00
2022-09-10T11:22:54.882Z,1.83
2022-09-10T11:25:29.975Z,0.68
2022-09-10T11:28:27.292Z,1.10
2022-09-10T11:31:05.214Z,0.68
2022-09-10T11:33:52.131Z,2.63
2022-09-10T11:36:34.900Z,2.60
2022-09-10T11:39:29.495Z,2.38
2022-09-10T11:42:00.125Z,1.58
2022-09-10T11:45:15.645Z,1.50
2022-09-10T11:47:57.170Z,1.70
2022-09-10T11:50:34.966Z,1.70
2022-09-10T11:53:07.558Z,1.83
2022-09-10T11:56:06.121Z,3.13
2022-09-10T11:59:11.643Z,2.58
2022-09-10T12:02:02.697Z,1.70
2022-09-10T12:05:03.927Z,1.98
2022-09-10T12:07:45.156Z,3.72
2022-09-10T12:11:01.764Z,3.25
2022-09-10T12:13:29.052Z,2.35
2022-09-10T12:16:05.133Z,1.40
2022-09-10T12:18:45.062Z,0.90
2022-09-10T12:21:42.892Z,2.10
2022-09-10T12:24:37.997Z,1.40
2022-09-10T12:27:07.875Z,2.10
2022-09-10T12:29:43.246Z,2.03
2022-09-10T12:32:29.445Z,2.72
2022-09-10T12:35:35.505Z,2.25
2022-09-10T12:38:46.183Z,2.25
2022-09-10T12:41:36.195Z,1.92
2022-09-10T12:44:26.865Z,5.70
2022-09-10T12:47:15.991Z,1.63
2022-09-10T12:49:57.284Z,1.75
2022-09-10T12:52:37.029Z,2.10
2022-09-10T12:55:57.849Z,2.70
2022-09-10T12:59:19.754Z,2.13
2022-09-10T13:01:52.038Z,2.20
2022-09-10T13:04:38.163Z,1.83
2022-09-10T13:07:25.993Z,2.20
2022-09-10T13:10:02.670Z,2.83
2022-09-10T13:12:33.403Z,1.65
2022-09-10T13:15:02.818Z,1.90
2022-09-10T13:18:01.346Z,1.50
2022-09-10T13:20:32.958Z,1.13
2022-09-10T13:23:04.094Z,3.60
2022-09-10T13:25:42.875Z,1.80
2022-09-10T13:28:35.013Z,2.40
2022-09-10T13:31:11.402Z,0.95
2022-09-10T13:33:53.936Z,1.65
2022-09-10T13:36:52.725Z,1.00
2022-09-10T13:40:02.879Z,1.83
2022-09-10T13:43:01.893Z,0.90
2022-09-10T13:45:41.841Z,1.80
2022-09-10T13:48:23.881Z,1.27
2022-09-10T13:51:20.168Z,1.40
2022-09-10T13:53:52.830Z,2.20
2022-09-10T13:56:29.425Z,2.00
2022-09-10T13:59:02.164Z,1.73
2022-09-10T14:01:53.181Z,2.38
2022-09-10T14:04:44.259Z,3.33
2022-09-10T14:07:29.810Z,7.05
2022-09-10T14:10:02.548Z,3.00
2022-09-10T14:12:35.803Z,1.40
2022-09-10T14:15:06.686Z,3.03
2022-09-10T14:17:51.112Z,2.40
2022-09-10T14:20:31.533Z,1.48
2022-09-10T14:23:06.733Z,5.43
2022-09-10T14:25:41.674Z,3.75
2022-09-10T14:28:28.163Z,2.05
2022-09-10T14:31:25.053Z,2.97
2022-09-10T14:33:55.535Z,4.32
2022-09-10T14:36:28.879Z,3.38
2022-09-10T14:39:22.614Z,3.22
2022-09-10T14:42:08.566Z,3.63
2022-09-10T14:44:42.895Z,2.20
2022-09-10T14:47:10.721Z,3.13
2022-09-10T14:49:47.221Z,2.30
2022-09-10T14:52:14.860Z,2.83
2022-09-10T14:54:42.270Z,2.08
2022-09-10T14:57:15.948Z,2.63
2022-09-10T14:59:46.431Z,1.83
2022-09-10T15:02:16.518Z,1.77
2022-09-10T15:04:44.032Z,1.42
2022-09-10T15:07:13.583Z,1.38
2022-09-10T15:09:41.337Z,4.00
2022-09-10T15:12:24.041Z,1.60
2022-09-10T15:14:52.378Z,0.60
2022-09-10T15:17:20.913Z,1.55
2022-09-10T15:19:48.586Z,2.50
2022-09-10T15:22:24.884Z,1.02
2022-09-10T15:25:10.879Z,1.48
2022-09-10T15:27:40.365Z,1.63
2022-09-10T15:30:08.437Z,1.83
2022-09-10T15:32:37.047Z,2.83
2022-09-10T15:35:07.878Z,3.03
2022-09-10T15:37:35.234Z,1.42
2022-09-10T15:40:04.553Z,2.90
2022-09-10T15:42:32.069Z,2.80
2022-09-10T15:44:59.316Z,1.52
2022-09-10T15:47:27.100Z,1.60
2022-09-10T15:49:54.410Z,1.88
2022-09-10T15:52:24.366Z,1.52
2022-09-10T15:54:51.580Z,4.72
2022-09-10T15:57:18.816Z,2.30
2022-09-10T15:59:47.347Z,1.95
2022-09-10T16:02:14.637Z,1.10
2022-09-10T16:04:43.144Z,1.05
2022-09-10T16:07:11.670Z,2.40
2022-09-10T16:09:39.139Z,1.17
2022-09-10T16:12:12.711Z,2.80
2022-09-10T16:14:40.009Z,1.48
2022-09-10T16:17:10.649Z,1.83
2022-09-10T16:19:38.635Z,1.67
2022-09-10T16:22:06.131Z,1.65
2022-09-10T16:24:33.365Z,2.20
2022-09-10T16:27:01.699Z,1.35
2022-09-10T16:29:29.199Z,1.35
2022-09-10T16:31:56.601Z,3.33
2022-09-10T16:34:24.584Z,2.72
2022-09-10T16:37:03.328Z,1.77
2022-09-10T16:39:30.692Z,1.38
2022-09-10T16:41:59.805Z,1.30
2022-09-10T16:44:31.360Z,2.42
2022-09-10T16:46:59.417Z,2.00
2022-09-10T16:49:27.485Z,1.77
2022-09-10T16:51:55.745Z,2.50
2022-09-10T16:54:26.746Z,2.30
2022-09-10T16:56:54.223Z,1.27
2022-09-10T16:59:24.100Z,2.23
2022-09-10T17:01:53.240Z,1.58
2022-09-10T17:04:28.231Z,0.93
2022-09-10T17:06:57.725Z,1.25
2022-09-10T17:09:25.606Z,2.80
2022-09-10T17:11:53.357Z,1.00
2022-09-10T17:14:20.670Z,3.20
2022-09-10T17:16:51.770Z,2.75
2022-09-10T17:19:26.371Z,3.70
2022-09-10T17:21:55.892Z,1.95
2022-09-10T17:24:26.960Z,2.70
2022-09-10T17:26:57.696Z,3.47
2022-09-10T17:29:26.321Z,4.60
2022-09-10T17:31:56.518Z,2.83
2022-09-10T17:34:24.740Z,1.40
2022-09-10T17:36:52.433Z,2.65
2022-09-10T17:39:20.102Z,5.00
2022-09-10T17:41:47.859Z,1.17
2022-09-10T17:44:16.736Z,2.70
2022-09-10T17:46:45.095Z,1.50
2022-09-10T17:49:17.140Z,2.55
2022-09-10T17:51:44.863Z,1.50
2022-09-10T17:54:13.470Z,2.30
2022-09-10T17:56:41.928Z,2.72
2022-09-10T17:59:16.379Z,2.20
2022-09-10T18:01:43.736Z,2.75
2022-09-10T18:04:15.834Z,3.53
2022-09-10T18:06:46.797Z,1.70
2022-09-10T18:09:17.444Z,3.28
2022-09-10T18:11:44.860Z,3.38
2022-09-10T18:14:21.613Z,2.58
2022-09-10T18:16:49.522Z,1.40
2022-09-10T18:19:18.035Z,2.72
2022-09-10T18:21:48.654Z,2.67
2022-09-10T18:24:22.556Z,1.55
2022-09-10T18:26:53.806Z,1.30
2022-09-10T18:29:27.889Z,0.85
2022-09-10T18:31:59.178Z,1.52
2022-09-10T18:34:29.726Z,1.70
2022-09-10T18:37:06.602Z,2.63
2022-09-10T18:39:34.387Z,0.90
2022-09-10T18:42:02.971Z,0.70
2022-09-10T18:44:33.444Z,2.08
2022-09-10T18:47:01.083Z,1.98
2022-09-10T18:49:29.296Z,1.85
2022-09-10T18:51:57.418Z,2.90
2022-09-10T18:54:28.278Z,2.03
2022-09-10T18:56:59.068Z,1.00
2022-09-10T18:59:27.132Z,2.00
2022-09-10T19:01:56.066Z,1.70
2022-09-10T19:04:27.470Z,0.55
2022-09-10T19:06:57.703Z,1.02
2022-09-10T19:09:30.325Z,1.73
2022-09-10T19:12:00.490Z,1.03
2022-09-10T19:14:31.935Z,2.08
2022-09-10T19:17:01.285Z,1.60
2022-09-10T19:19:36.385Z,1.42
2022-09-10T19:22:11.011Z,1.35
2022-09-10T19:24:53.937Z,1.27
2022-09-10T19:27:22.432Z,0.40
2022-09-10T19:29:50.403Z,2.78
2022-09-10T19:32:20.055Z,0.40
2022-09-10T19:34:51.857Z,0.60
2022-09-10T19:37:19.935Z,0.40
2022-09-10T19:39:47.735Z,0.98
2022-09-10T19:42:17.268Z,1.20
2022-09-10T19:44:44.642Z,2.27
2022-09-10T19:47:12.034Z,0.55
2022-09-10T19:49:39.325Z,0.40
2022-09-10T19:52:06.704Z,1.30
2022-09-10T19:54:35.183Z,0.73
2022-09-10T19:57:02.708Z,0.68
2022-09-10T19:59:30.052Z,1.25
2022-09-10T20:01:57.792Z,0.73
2022-09-10T20:04:25.930Z,1.50
2022-09-10T20:06:53.952Z,0.77
2022-09-10T20:09:21.280Z,1.52
2022-09-10T20:11:49.075Z,0.85
2022-09-10T20:14:16.316Z,0.55
2022-09-10T20:16:45.693Z,2.10
2022-09-10T20:19:18.346Z,0.95
2022-09-10T20:21:47.747Z,0.90
2022-09-10T20:24:16.416Z,1.23
2022-09-10T20:26:49.024Z,0.43
2022-09-10T20:29:18.584Z,0.73
2022-09-10T20:31:49.870Z,1.00
2022-09-10T20:34:22.475Z,1.87
2022-09-10T20:36:51.736Z,0.95
2022-09-10T20:39:22.251Z,0.90
2022-09-10T20:41:56.424Z,1.33
2022-09-10T20:44:24.560Z,2.13
2022-09-10T20:46:52.272Z,0.93
2022-09-10T20:49:19.830Z,0.80
2022-09-10T20:51:47.358Z,1.17
2022-09-10T20:54:18.332Z,1.35
2022-09-10T20:56:46.768Z,2.78
2022-09-10T20:59:16.540Z,0.80
2022-09-10T21:01:45.977Z,1.08
2022-09-10T21:04:14.267Z,1.00
2022-09-10T21:06:46.356Z,1.15
2022-09-10T21:09:14.093Z,1.75
2022-09-10T21:11:41.508Z,1.90
2022-09-10T21:14:09.614Z,0.93
2022-09-10T21:16:43.328Z,2.00
2022-09-10T21:19:16.813Z,1.00
2022-09-10T21:21:46.615Z,1.38
2022-09-10T21:24:22.601Z,1.02
2022-09-10T21:26:50.789Z,1.13
2022-09-10T21:29:21.423Z,1.02
2022-09-10T21:31:50.749Z,0.80
2022-09-10T21:34:18.020Z,1.45
2022-09-10T21:36:45.521Z,2.30
2022-09-10T21:39:17.259Z,0.93
2022-09-10T21:41:48.580Z,1.20
2022-09-10T21:44:20.022Z,2.72
2022-09-10T21:46:49.430Z,1.25
2022-09-10T21:49:18.466Z,1.50
2022-09-10T21:51:46.216Z,0.82
2022-09-10T21:54:21.083Z,2.20
2022-09-10T21:56:50.424Z,1.17
2022-09-10T21:59:18.757Z,0.63
2022-09-10T22:01:47.576Z,1.20
2022-09-10T22:04:20.014Z,1.67
2022-09-10T22:06:48.964Z,0.35
2022-09-10T22:09:17.598Z,0.80
2022-09-10T22:11:50.201Z,0.80
2022-09-10T22:14:25.599Z,3.05
2022-09-10T22:16:53.512Z,1.33
2022-09-10T22:19:25.327Z,1.42
2022-09-10T22:21:54.440Z,1.63
2022-09-10T22:24:22.353Z,0.90
2022-09-10T22:26:50.385Z,0.70
2022-09-10T22:29:20.519Z,1.10
2022-09-10T22:31:49.104Z,0.93
2022-09-10T22:34:18.236Z,1.05
2022-09-10T22:36:47.184Z,0.60
2022-09-10T22:39:21.375Z,0.52
2022-09-10T22:41:51.167Z,1.10
2022-09-10T22:44:19.384Z,1.20
2022-09-10T22:46:47.032Z,1.90
2022-09-10T22:49:16.104Z,1.38
2022-09-10T22:51:44.168Z,0.80
2022-09-10T22:54:11.870Z,1.02
2022-09-10T22:56:39.930Z,2.73
2022-09-10T22:59:11.313Z,1.85
2022-09-10T23:01:39.443Z,1.23
2022-09-10T23:04:08.966Z,0.82
2022-09-10T23:06:39.049Z,0.93
2022-09-10T23:09:14.192Z,1.15
2022-09-10T23:11:42.551Z,2.00
2022-09-10T23:14:15.856Z,0.87
2022-09-10T23:16:49.859Z,1.20
2022-09-10T23:19:23.045Z,1.40
2022-09-10T23:21:53.971Z,0.63
2022-09-10T23:24:24.857Z,1.60
2022-09-10T23:26:53.969Z,0.82
2022-09-10T23:29:22.580Z,2.72
2022-09-10T23:31:54.367Z,1.58
2022-09-10T23:34:22.492Z,0.70
2022-09-10T23:36:51.239Z,1.45
2022-09-10T23:39:23.852Z,0.90
2022-09-10T23:41:55.262Z,2.67
2022-09-10T23:44:22.959Z,2.17
2022-09-10T23:46:50.905Z,3.53
2022-09-10T23:49:23.823Z,2.67
2022-09-10T23:51:51.673Z,1.67
2022-09-10T23:54:18.970Z,0.90
2022-09-10T23:56:46.180Z,1.25
2022-09-10T23:59:13.535Z,1.20
